createdAt,value
2023-02-19T00:00:55.896Z,3.49
2023-02-19T00:03:22.392Z,3.40
2023-02-19T00:05:48.867Z,3.33
2023-02-19T00:08:15.370Z,3.35
2023-02-19T00:10:41.836Z,3.36
2023-02-19T00:13:08.396Z,3.91
2023-02-19T00:15:35.527Z,3.62
2023-02-19T00:18:02.028Z,3.51
2023-02-19T00:20:28.513Z,3.35
2023-02-19T00:22:54.916Z,3.09
2023-02-19T00:25:21.363Z,3.25
2023-02-19T00:27:47.820Z,3.07
2023-02-19T00:30:14.313Z,3.10
2023-02-19T00:32:40.899Z,3.05
2023-02-19T00:35:10.657Z,3.16
2023-02-19T00:37:37.165Z,4.60
2023-02-19T00:40:03.680Z,3.54
2023-02-19T00:42:30.111Z,3.20
2023-02-19T00:44:56.600Z,3.08
2023-02-19T00:47:23.121Z,3.20
2023-02-19T00:49:49.549Z,3.27
2023-02-19T00:52:16.038Z,3.04
2023-02-19T00:54:42.450Z,3.44
2023-02-19T00:57:08.983Z,3.36
2023-02-19T00:59:36.841Z,3.41
2023-02-19T01:02:03.706Z,3.20
2023-02-19T01:04:30.383Z,3.11
2023-02-19T01:06:56.879Z,3.08
2023-02-19T01:09:23.332Z,3.16
2023-02-19T01:11:49.848Z,3.14
2023-02-19T01:14:16.393Z,3.07
2023-02-19T01:16:42.915Z,3.72
2023-02-19T01:19:09.510Z,3.23
2023-02-19T01:21:35.965Z,2.97
2023-02-19T01:24:03.142Z,3.12
2023-02-19T01:26:31.183Z,3.09
2023-02-19T01:28:58.610Z,3.07
2023-02-19T01:31:25.255Z,3.07
2023-02-19T01:33:56.203Z,3.04
2023-02-19T01:36:23.124Z,3.13
2023-02-19T01:38:49.823Z,3.16
2023-02-19T01:41:17.868Z,3.13
2023-02-19T01:43:58.534Z,3.20
2023-02-19T01:46:29.437Z,3.43
2023-02-19T01:48:57.438Z,3.34
2023-02-19T01:51:24.040Z,3.31
2023-02-19T01:53:53.900Z,3.40
2023-02-19T01:56:21.154Z,3.22
2023-02-19T01:58:48.705Z,3.88
2023-02-19T02:01:15.308Z,3.64
2023-02-19T02:03:44.871Z,3.56
2023-02-19T02:06:11.288Z,3.47
2023-02-19T02:08:56.593Z,3.53
2023-02-19T02:11:23.343Z,3.58
2023-02-19T02:13:51.043Z,3.70
2023-02-19T02:16:25.652Z,3.58
2023-02-19T02:19:07.468Z,3.36
2023-02-19T02:21:38.297Z,3.42
2023-02-19T02:24:25.073Z,3.60
2023-02-19T02:27:06.969Z,3.65
2023-02-19T02:29:33.512Z,3.78
2023-02-19T02:32:29.468Z,3.56
2023-02-19T02:35:04.075Z,3.57
2023-02-19T02:37:33.279Z,3.87
2023-02-19T02:40:00.499Z,3.77
2023-02-19T02:42:30.124Z,3.81
2023-02-19T02:45:37.364Z,3.56
2023-02-19T02:48:15.982Z,3.30
2023-02-19T02:50:46.068Z,3.48
2023-02-19T02:53:38.652Z,3.55
2023-02-19T02:56:05.932Z,3.64
2023-02-19T02:58:35.212Z,3.47
2023-02-19T03:01:25.763Z,4.00
2023-02-19T03:03:55.413Z,3.99
2023-02-19T03:06:24.210Z,3.68
2023-02-19T03:08:57.441Z,3.71
2023-02-19T03:11:42.716Z,3.52
2023-02-19T03:14:33.035Z,3.68
2023-02-19T03:17:21.264Z,3.61
2023-02-19T03:19:50.623Z,3.70
2023-02-19T03:22:17.051Z,3.73
2023-02-19T03:25:06.148Z,3.65
2023-02-19T03:27:34.469Z,3.62
2023-02-19T03:30:03.056Z,3.58
2023-02-19T03:32:30.156Z,3.48
2023-02-19T03:34:59.442Z,3.59
2023-02-19T03:37:32.495Z,3.49
2023-02-19T03:40:00.416Z,3.58
2023-02-19T03:42:35.548Z,3.40
2023-02-19T03:45:10.164Z,3.28
2023-02-19T03:47:44.005Z,3.38
2023-02-19T03:50:16.806Z,3.15
2023-02-19T03:52:56.032Z,3.13
2023-02-19T03:55:31.651Z,3.20
2023-02-19T03:58:05.886Z,3.09
2023-02-19T04:00:39.275Z,3.06
2023-02-19T04:03:09.859Z,2.98
2023-02-19T04:05:39.779Z,3.13
2023-02-19T04:08:10.103Z,3.16
2023-02-19T04:10:42.105Z,3.10
2023-02-19T04:13:35.221Z,3.13
2023-02-19T04:16:03.909Z,3.07
2023-02-19T04:18:32.725Z,3.18
2023-02-19T04:21:00.397Z,3.25
2023-02-19T04:23:29.275Z,3.22
2023-02-19T04:25:57.813Z,3.13
2023-02-19T04:28:24.343Z,3.16
2023-02-19T04:30:50.931Z,3.13
2023-02-19T04:33:17.477Z,3.07
2023-02-19T04:35:43.903Z,3.01
2023-02-19T04:38:10.472Z,3.21
2023-02-19T04:40:36.900Z,2.98
2023-02-19T04:43:03.343Z,2.89
2023-02-19T04:45:29.808Z,2.88
2023-02-19T04:47:57.880Z,2.80
2023-02-19T04:50:24.545Z,2.78
2023-02-19T04:52:51.016Z,3.05
2023-02-19T04:55:17.785Z,3.11
2023-02-19T04:57:44.318Z,3.16
2023-02-19T05:00:13.389Z,3.52
2023-02-19T05:02:39.835Z,3.48
2023-02-19T05:05:06.348Z,3.31
2023-02-19T05:07:33.232Z,3.15
2023-02-19T05:09:59.826Z,3.06
2023-02-19T05:12:26.662Z,2.97
2023-02-19T05:14:53.106Z,2.95
2023-02-19T05:17:19.585Z,3.37
2023-02-19T05:19:46.028Z,3.33
2023-02-19T05:22:12.473Z,3.39
2023-02-19T05:24:38.966Z,3.58
2023-02-19T05:27:05.426Z,3.52
2023-02-19T05:29:32.264Z,3.47
2023-02-19T05:31:58.921Z,3.61
2023-02-19T05:34:25.419Z,3.60
2023-02-19T05:36:51.969Z,3.64
2023-02-19T05:39:18.464Z,3.83
2023-02-19T05:41:44.908Z,3.77
2023-02-19T05:44:11.655Z,3.80
2023-02-19T05:46:38.311Z,3.83
2023-02-19T05:49:04.844Z,3.83
2023-02-19T05:51:31.442Z,3.79
2023-02-19T05:53:58.109Z,3.62
2023-02-19T05:56:35.194Z,4.14
2023-02-19T05:59:03.972Z,4.32
2023-02-19T06:01:30.676Z,3.98
2023-02-19T06:03:58.048Z,3.99
2023-02-19T06:06:25.206Z,3.95
2023-02-19T06:08:52.015Z,3.95
2023-02-19T06:11:18.799Z,4.05
2023-02-19T06:13:45.496Z,3.97
2023-02-19T06:16:12.165Z,3.97
2023-02-19T06:18:40.617Z,4.01
2023-02-19T06:21:08.687Z,3.97
2023-02-19T06:23:35.432Z,3.98
2023-02-19T06:26:06.178Z,3.93
2023-02-19T06:28:32.639Z,4.32
2023-02-19T06:30:59.251Z,4.41
2023-02-19T06:33:26.913Z,4.12
2023-02-19T06:35:53.513Z,4.19
2023-02-19T06:38:23.083Z,4.36
2023-02-19T06:40:49.543Z,4.53
2023-02-19T06:43:16.045Z,4.56
2023-02-19T06:45:42.485Z,4.54
2023-02-19T06:48:08.931Z,4.79
2023-02-19T06:50:35.469Z,4.50
2023-02-19T06:53:02.010Z,4.51
2023-02-19T06:55:28.502Z,4.66
2023-02-19T06:57:54.924Z,4.64
2023-02-19T07:00:21.495Z,4.73
2023-02-19T07:02:48.144Z,4.82
2023-02-19T07:05:14.664Z,4.93
2023-02-19T07:07:41.188Z,5.44
2023-02-19T07:10:07.751Z,5.31
2023-02-19T07:12:34.226Z,5.12
2023-02-19T07:15:00.679Z,5.10
2023-02-19T07:17:27.169Z,5.19
2023-02-19T07:19:53.623Z,5.19
2023-02-19T07:22:20.138Z,5.33
2023-02-19T07:24:48.120Z,5.28
2023-02-19T07:27:15.071Z,5.39
2023-02-19T07:29:41.575Z,5.71
2023-02-19T07:32:08.009Z,5.42
2023-02-19T07:34:34.493Z,5.47
2023-02-19T07:37:01.105Z,5.37
2023-02-19T07:39:27.888Z,5.29
2023-02-19T07:41:54.350Z,5.22
2023-02-19T07:44:27.131Z,5.61
2023-02-19T07:46:53.604Z,6.01
2023-02-19T07:49:20.082Z,5.81
2023-02-19T07:51:46.491Z,5.68
2023-02-19T07:54:13.595Z,5.79
2023-02-19T07:56:40.058Z,5.62
2023-02-19T07:59:06.558Z,5.82
2023-02-19T08:01:51.556Z,6.01
2023-02-19T08:04:18.003Z,6.41
2023-02-19T08:06:44.486Z,6.65
2023-02-19T08:09:11.060Z,6.81
2023-02-19T08:11:56.066Z,6.54
2023-02-19T08:14:28.950Z,6.37
2023-02-19T08:16:55.741Z,6.19
2023-02-19T08:19:22.350Z,6.29
2023-02-19T08:21:48.960Z,6.34
2023-02-19T08:24:15.395Z,6.79
2023-02-19T08:26:41.867Z,7.68
2023-02-19T08:29:08.330Z,7.70
2023-02-19T08:31:35.390Z,7.19
2023-02-19T08:34:01.908Z,7.10
2023-02-19T08:36:28.419Z,8.13
2023-02-19T08:38:54.860Z,7.40
2023-02-19T08:41:21.436Z,7.35
2023-02-19T08:43:47.915Z,7.36
2023-02-19T08:46:14.616Z,7.35
2023-02-19T08:48:41.290Z,7.58
2023-02-19T08:51:09.996Z,7.16
2023-02-19T08:53:37.787Z,7.40
2023-02-19T08:56:11.020Z,7.10
2023-02-19T08:58:38.056Z,7.51
2023-02-19T09:01:09.448Z,7.61
2023-02-19T09:03:36.620Z,7.64
2023-02-19T09:06:03.328Z,7.55
2023-02-19T09:08:29.837Z,7.64
2023-02-19T09:11:04.508Z,8.51
2023-02-19T09:13:30.993Z,8.61
2023-02-19T09:15:57.469Z,9.44
2023-02-19T09:18:25.245Z,10.18
2023-02-19T09:20:51.707Z,11.00
2023-02-19T09:23:18.143Z,11.32
2023-02-19T09:25:44.629Z,10.88
2023-02-19T09:28:11.100Z,9.96
2023-02-19T09:30:37.595Z,11.00
2023-02-19T09:33:05.455Z,10.62
2023-02-19T09:35:31.908Z,11.71
2023-02-19T09:37:59.688Z,12.59
2023-02-19T09:40:26.183Z,12.42
2023-02-19T09:42:52.679Z,13.25
2023-02-19T09:45:22.340Z,12.60
2023-02-19T09:47:49.677Z,13.04
2023-02-19T09:50:20.394Z,13.64
2023-02-19T09:52:52.891Z,14.02
2023-02-19T09:55:22.428Z,14.73
2023-02-19T09:57:51.255Z,14.90
2023-02-19T10:00:22.377Z,14.96
2023-02-19T10:02:53.764Z,15.09
2023-02-19T10:05:21.309Z,15.71
2023-02-19T10:07:49.164Z,15.33
2023-02-19T10:10:15.589Z,14.92
2023-02-19T10:12:50.541Z,15.88
2023-02-19T10:15:19.015Z,15.72
2023-02-19T10:17:45.487Z,14.87
2023-02-19T10:20:17.065Z,15.77
2023-02-19T10:22:43.888Z,15.28
2023-02-19T10:25:16.725Z,15.29
2023-02-19T10:27:43.785Z,15.09
2023-02-19T10:30:21.106Z,16.13
2023-02-19T10:33:00.303Z,16.30
2023-02-19T10:35:26.892Z,15.90
2023-02-19T10:37:53.723Z,16.90
2023-02-19T10:40:25.410Z,16.32
2023-02-19T10:43:01.198Z,17.37
2023-02-19T10:45:34.026Z,17.70
2023-02-19T10:48:00.747Z,17.27
2023-02-19T10:50:37.198Z,17.78
2023-02-19T10:53:03.663Z,18.27
2023-02-19T10:55:36.759Z,18.06
2023-02-19T10:58:25.391Z,17.34
2023-02-19T11:01:12.463Z,17.52
2023-02-19T11:03:39.286Z,18.28
2023-02-19T11:06:08.872Z,18.44
2023-02-19T11:08:49.541Z,17.70
2023-02-19T11:11:42.312Z,19.05
2023-02-19T11:14:15.387Z,19.73
2023-02-19T11:16:46.947Z,20.32
2023-02-19T11:19:25.737Z,19.88
2023-02-19T11:21:52.711Z,19.55
2023-02-19T11:24:40.531Z,20.09
2023-02-19T11:27:16.013Z,19.42
2023-02-19T11:29:42.458Z,20.12
2023-02-19T11:32:29.638Z,20.13
2023-02-19T11:35:17.668Z,20.88
2023-02-19T11:37:58.715Z,21.75
2023-02-19T11:40:41.004Z,21.69
2023-02-19T11:43:17.652Z,22.29
2023-02-19T11:45:51.051Z,22.57
2023-02-19T11:48:32.502Z,23.23
2023-02-19T11:51:10.526Z,23.38
2023-02-19T11:53:42.339Z,21.60
2023-02-19T11:56:09.338Z,22.02
2023-02-19T11:58:43.171Z,21.25
2023-02-19T12:01:12.870Z,23.71
2023-02-19T12:03:57.558Z,23.10
2023-02-19T12:06:45.792Z,23.46
2023-02-19T12:09:12.240Z,22.70
2023-02-19T12:11:53.596Z,22.20
2023-02-19T12:14:43.810Z,23.35
2023-02-19T12:17:29.264Z,22.92
2023-02-19T12:20:14.198Z,22.19
2023-02-19T12:22:54.610Z,22.90
2023-02-19T12:25:24.203Z,22.39
2023-02-19T12:28:26.247Z,22.78
2023-02-19T12:30:53.340Z,23.56
2023-02-19T12:33:21.698Z,24.31
2023-02-19T12:35:56.163Z,23.43
2023-02-19T12:38:29.550Z,23.92
2023-02-19T12:41:02.218Z,22.89
2023-02-19T12:43:30.812Z,23.12
2023-02-19T12:46:09.739Z,24.37
2023-02-19T12:48:39.488Z,24.45
2023-02-19T12:51:19.858Z,24.65
2023-02-19T12:53:49.014Z,23.98
2023-02-19T12:56:26.135Z,23.96
2023-02-19T12:59:07.332Z,23.45
2023-02-19T13:01:41.619Z,23.59
2023-02-19T13:04:23.666Z,23.36
2023-02-19T13:07:13.521Z,23.50
2023-02-19T13:09:52.370Z,24.11
2023-02-19T13:12:29.101Z,23.86
2023-02-19T13:15:14.157Z,23.11
2023-02-19T13:17:55.649Z,22.43
2023-02-19T13:20:22.179Z,22.81
2023-02-19T13:23:10.421Z,22.85
2023-02-19T13:25:56.792Z,23.23
2023-02-19T13:28:23.830Z,21.71
2023-02-19T13:31:02.422Z,21.66
2023-02-19T13:33:55.470Z,22.03
2023-02-19T13:36:29.129Z,21.93
2023-02-19T13:38:59.617Z,21.58
2023-02-19T13:41:39.252Z,20.86
2023-02-19T13:44:17.738Z,18.33
2023-02-19T13:46:45.555Z,18.56
2023-02-19T13:49:27.324Z,17.98
2023-02-19T13:51:55.064Z,18.04
2023-02-19T13:54:23.596Z,18.57
2023-02-19T13:56:50.311Z,17.66
2023-02-19T13:59:25.579Z,18.59
2023-02-19T14:01:58.159Z,19.02
2023-02-19T14:04:26.444Z,19.71
2023-02-19T14:07:05.118Z,19.53
2023-02-19T14:09:34.496Z,19.69
2023-02-19T14:12:02.612Z,18.88
2023-02-19T14:14:32.025Z,19.55
2023-02-19T14:17:04.436Z,19.21
2023-02-19T14:19:44.287Z,18.03
2023-02-19T14:22:30.628Z,18.99
2023-02-19T14:24:57.721Z,19.02
2023-02-19T14:27:25.429Z,19.08
2023-02-19T14:29:52.336Z,19.15
2023-02-19T14:32:20.106Z,19.44
2023-02-19T14:34:46.754Z,19.44
2023-02-19T14:37:18.227Z,18.83
2023-02-19T14:39:45.288Z,18.56
2023-02-19T14:42:14.788Z,18.24
2023-02-19T14:44:47.273Z,18.56
2023-02-19T14:47:16.192Z,18.73
2023-02-19T14:49:54.387Z,19.09
2023-02-19T14:52:43.482Z,18.80
2023-02-19T14:55:30.269Z,18.14
2023-02-19T14:57:58.375Z,18.57
2023-02-19T15:00:25.086Z,18.74
2023-02-19T15:02:52.254Z,18.87
2023-02-19T15:05:21.758Z,17.92
2023-02-19T15:07:48.701Z,17.59
2023-02-19T15:10:15.646Z,18.16
2023-02-19T15:12:45.099Z,18.09
2023-02-19T15:15:25.539Z,17.32
2023-02-19T15:17:53.194Z,17.30
2023-02-19T15:20:21.623Z,17.49
2023-02-19T15:22:48.481Z,17.57
2023-02-19T15:25:17.742Z,16.82
2023-02-19T15:27:44.495Z,17.11
2023-02-19T15:30:28.607Z,16.87
2023-02-19T15:32:57.436Z,17.38
2023-02-19T15:35:25.145Z,16.69
2023-02-19T15:37:52.231Z,16.62
2023-02-19T15:40:20.495Z,16.95
2023-02-19T15:42:47.291Z,16.45
2023-02-19T15:45:25.292Z,16.37
2023-02-19T15:47:56.190Z,16.18
2023-02-19T15:50:25.571Z,15.47
2023-02-19T15:52:59.672Z,15.15
2023-02-19T15:55:26.250Z,14.59
2023-02-19T15:57:58.749Z,14.78
2023-02-19T16:00:51.596Z,14.50
2023-02-19T16:03:19.883Z,14.35
2023-02-19T16:05:46.877Z,14.43
2023-02-19T16:08:20.278Z,14.02
2023-02-19T16:10:56.859Z,14.17
2023-02-19T16:13:33.306Z,14.16
2023-02-19T16:16:08.964Z,13.78
2023-02-19T16:18:35.633Z,14.01
2023-02-19T16:21:04.191Z,13.67
2023-02-19T16:23:31.314Z,14.11
2023-02-19T16:25:59.812Z,13.71
2023-02-19T16:28:26.895Z,13.55
2023-02-19T16:31:00.856Z,13.23
2023-02-19T16:33:34.598Z,13.00
2023-02-19T16:36:19.910Z,13.17
2023-02-19T16:39:04.975Z,13.10
2023-02-19T16:41:31.479Z,13.05
2023-02-19T16:43:57.934Z,13.02
2023-02-19T16:46:24.402Z,13.11
2023-02-19T16:48:51.324Z,12.89
2023-02-19T16:51:23.692Z,12.76
2023-02-19T16:53:50.127Z,12.79
2023-02-19T16:56:18.583Z,12.67
2023-02-19T16:58:45.012Z,12.59
2023-02-19T17:01:11.798Z,12.65
2023-02-19T17:03:39.340Z,12.58
2023-02-19T17:06:05.981Z,12.52
2023-02-19T17:08:33.873Z,12.50
2023-02-19T17:11:02.177Z,12.35
2023-02-19T17:13:29.471Z,12.29
2023-02-19T17:15:56.508Z,12.03
2023-02-19T17:18:23.030Z,12.03
2023-02-19T17:20:55.259Z,12.04
2023-02-19T17:23:23.574Z,12.28
2023-02-19T17:25:50.901Z,11.63
2023-02-19T17:28:17.457Z,11.66
2023-02-19T17:30:43.940Z,12.05
2023-02-19T17:33:10.450Z,12.34
2023-02-19T17:35:36.997Z,12.07
2023-02-19T17:38:09.380Z,12.25
2023-02-19T17:40:36.286Z,11.86
2023-02-19T17:43:03.253Z,11.67
2023-02-19T17:45:29.811Z,12.32
2023-02-19T17:47:56.361Z,11.92
2023-02-19T17:50:24.430Z,11.92
2023-02-19T17:52:50.906Z,12.01
2023-02-19T17:55:20.816Z,12.22
2023-02-19T17:57:47.950Z,12.37
2023-02-19T18:00:15.654Z,12.24
2023-02-19T18:02:42.428Z,12.29
2023-02-19T18:05:08.914Z,12.55
2023-02-19T18:07:36.075Z,12.31
2023-02-19T18:10:03.189Z,12.42
2023-02-19T18:12:29.848Z,12.23
2023-02-19T18:14:57.206Z,12.21
2023-02-19T18:17:24.366Z,12.37
2023-02-19T18:19:50.990Z,12.43
2023-02-19T18:22:17.843Z,12.23
2023-02-19T18:24:51.246Z,12.17
2023-02-19T18:27:19.145Z,12.10
2023-02-19T18:29:55.837Z,12.44
2023-02-19T18:32:23.595Z,12.60
2023-02-19T18:34:53.852Z,12.42
2023-02-19T18:37:20.421Z,12.39
2023-02-19T18:39:47.111Z,12.30
2023-02-19T18:42:13.796Z,12.29
2023-02-19T18:44:40.219Z,12.22
2023-02-19T18:47:07.418Z,12.22
2023-02-19T18:49:33.982Z,12.32
2023-02-19T18:52:01.313Z,12.25
2023-02-19T18:54:28.680Z,12.47
2023-02-19T18:56:55.316Z,12.36
2023-02-19T18:59:21.877Z,12.26
2023-02-19T19:01:48.599Z,12.30
2023-02-19T19:04:15.156Z,12.29
2023-02-19T19:06:41.667Z,12.12
2023-02-19T19:09:08.509Z,12.14
2023-02-19T19:11:35.323Z,12.42
2023-02-19T19:14:01.965Z,12.35
2023-02-19T19:16:29.110Z,12.21
2023-02-19T19:18:56.354Z,12.34
2023-02-19T19:21:23.088Z,12.19
2023-02-19T19:23:50.077Z,12.19
2023-02-19T19:26:16.579Z,12.45
2023-02-19T19:28:46.569Z,12.55
2023-02-19T19:31:14.317Z,12.47
2023-02-19T19:33:41.829Z,12.39
2023-02-19T19:36:09.035Z,12.37
2023-02-19T19:38:35.479Z,12.23
2023-02-19T19:41:02.008Z,12.23
2023-02-19T19:43:28.956Z,12.13
2023-02-19T19:45:55.976Z,11.95
2023-02-19T19:48:22.872Z,11.74
2023-02-19T19:50:49.359Z,11.45
2023-02-19T19:53:15.832Z,12.14
2023-02-19T19:55:42.277Z,11.79
2023-02-19T19:58:08.755Z,10.93
2023-02-19T20:00:35.223Z,10.67
2023-02-19T20:03:02.186Z,10.52
2023-02-19T20:05:28.762Z,10.48
2023-02-19T20:07:55.180Z,10.39
2023-02-19T20:10:21.704Z,10.62
2023-02-19T20:12:48.243Z,9.95
2023-02-19T20:15:19.203Z,9.38
2023-02-19T20:17:45.652Z,8.97
2023-02-19T20:20:12.353Z,8.97
2023-02-19T20:22:39.365Z,8.80
2023-02-19T20:25:06.174Z,8.83
2023-02-19T20:27:32.638Z,8.87
2023-02-19T20:29:59.148Z,8.94
2023-02-19T20:32:25.675Z,8.62
2023-02-19T20:34:52.231Z,8.11
2023-02-19T20:37:18.664Z,8.31
2023-02-19T20:39:45.068Z,8.26
2023-02-19T20:42:11.585Z,8.34
2023-02-19T20:44:38.075Z,8.14
2023-02-19T20:47:04.757Z,7.78
2023-02-19T20:49:31.341Z,8.06
2023-02-19T20:51:59.750Z,8.45
2023-02-19T20:54:29.442Z,8.20
2023-02-19T20:56:57.485Z,9.12
2023-02-19T20:59:25.280Z,9.13
2023-02-19T21:01:51.757Z,9.22
2023-02-19T21:04:18.960Z,9.05
2023-02-19T21:06:45.794Z,8.67
2023-02-19T21:09:12.605Z,8.60
2023-02-19T21:11:39.575Z,8.66
2023-02-19T21:14:06.112Z,8.57
2023-02-19T21:16:32.743Z,8.35
2023-02-19T21:18:59.601Z,8.02
2023-02-19T21:21:26.430Z,7.93
2023-02-19T21:23:53.611Z,7.70
2023-02-19T21:26:20.339Z,7.76
2023-02-19T21:28:46.782Z,7.93
2023-02-19T21:31:13.417Z,8.03
2023-02-19T21:33:39.915Z,7.95
2023-02-19T21:36:06.559Z,7.91
2023-02-19T21:38:33.047Z,7.81
2023-02-19T21:40:59.511Z,7.71
2023-02-19T21:43:27.948Z,7.87
2023-02-19T21:45:54.753Z,7.93
2023-02-19T21:48:21.485Z,7.38
2023-02-19T21:50:48.018Z,7.40
2023-02-19T21:53:15.197Z,8.33
2023-02-19T21:55:56.578Z,7.84
2023-02-19T21:58:24.520Z,7.19
2023-02-19T22:00:51.023Z,6.73
2023-02-19T22:03:17.596Z,6.90
2023-02-19T22:05:44.061Z,6.80
2023-02-19T22:08:10.661Z,7.18
2023-02-19T22:10:39.300Z,6.94
2023-02-19T22:13:05.738Z,7.03
2023-02-19T22:15:32.674Z,7.02
2023-02-19T22:17:59.295Z,7.06
2023-02-19T22:20:25.730Z,7.07
2023-02-19T22:22:52.238Z,6.92
2023-02-19T22:25:20.399Z,6.87
2023-02-19T22:27:48.890Z,6.74
2023-02-19T22:30:16.091Z,6.81
2023-02-19T22:32:42.713Z,6.95
2023-02-19T22:35:09.209Z,6.94
2023-02-19T22:37:35.645Z,7.07
2023-02-19T22:40:02.122Z,7.01
2023-02-19T22:42:29.352Z,6.99
2023-02-19T22:44:55.800Z,6.96
2023-02-19T22:47:22.306Z,6.89
2023-02-19T22:49:48.804Z,6.72
2023-02-19T22:52:15.350Z,6.70
2023-02-19T22:54:41.824Z,6.86
2023-02-19T22:57:08.261Z,6.98
2023-02-19T22:59:34.804Z,6.97
2023-02-19T23:02:01.335Z,6.81
2023-02-19T23:04:27.844Z,6.98
2023-02-19T23:06:54.442Z,6.77
2023-02-19T23:09:22.474Z,6.64
2023-02-19T23:11:49.020Z,6.88
2023-02-19T23:14:16.272Z,7.02
2023-02-19T23:16:42.879Z,6.97
2023-02-19T23:19:11.524Z,7.03
2023-02-19T23:21:42.167Z,6.77
2023-02-19T23:24:09.240Z,6.80
2023-02-19T23:26:35.883Z,7.19
2023-02-19T23:29:02.629Z,7.30
2023-02-19T23:31:29.175Z,7.02
2023-02-19T23:33:55.720Z,7.00
2023-02-19T23:36:23.854Z,7.03
2023-02-19T23:38:50.391Z,7.06
2023-02-19T23:41:17.666Z,7.04
2023-02-19T23:43:44.346Z,7.15
2023-02-19T23:46:14.394Z,6.93
2023-02-19T23:48:41.176Z,6.79
2023-02-19T23:51:07.612Z,7.12
2023-02-19T23:53:34.049Z,7.06
2023-02-19T23:56:00.563Z,7.08
2023-02-19T23:58:27.037Z,7.46
